Cesar Herrera

Scout - Guadalajara
14 Okt 2027
Donnerstag
Verarbeitung

Persönlichkeit

Anpassungsfähigkeit (17) Ehrgeiz (5) Kontroverse (9) Loyalität (2) Druck (5) Professionalität (14) Fairness (13) Temperament (13)

Profil

Trainerstil Demokratisch
Lizenz Kontinentale Pro
Entschlossenheit 9
Menschenführung 8
Motivation 6
Disziplin 10
Arbeitszufriedenheit
87%
Ermüdung
0%
Rolle Scout
Gehalt 55.2K p/W
Vertrag 14.03.2030

Leistung

Verhalten Gut
Trainingseffektivität
47%
Spielerentwicklung
55%
Verletzungsprävention
45%
Taktische Umsetzung
75%

Letzte Ereignisse

Nahm an einer Scouting-Besprechung teil 7T her
Empfahl ein Transferziel 7T her
Nahm an einer Scouting-Besprechung teil 14T her
Empfahl ein Transferziel 14T her
Nahm an einer Scouting-Besprechung teil 21T her
Empfahl ein Transferziel 21T her
Nahm an einer Scouting-Besprechung teil 28T her
Empfahl ein Transferziel 28T her

Aktuell beobachtet

96
Spieler Verein Status Fähigkeit Vertrauen Beobachtet Zuletzt beobachtet Letzte Stimme
Charlie Gray Fleetwood Town Aktiv 85 / 102 40% 1 03.08.2027 -
Zane Albarus Shrewsbury Town Aktiv 99 / 109 40% 1 03.08.2027 -
Felipe Faúndez O'Higgins Aktiv 111 / 111 40% 1 03.08.2027 -
Antonio Briseño Toluca Aktiv 111 / 113 65% 1 26.07.2027 Befürworten
Anthony Patterson Wrexham Aktiv 149 / 128 40% 2 19.07.2027 -
Alex Bass Peterborough United Aktiv 104 / 113 40% 1 19.07.2027 -
Simone Scuffet Pisa Verloren 144 / 129 40% 1 19.07.2027 -
Filip Marschall Stevenage Verloren 124 / 112 40% 1 17.07.2027 -
Nathan Trott Cardiff City Aktiv 129 / 137 40% 1 17.07.2027 -
Michael Cooper Sheffield United Aktiv 130 / 123 40% 1 14.06.2027 -
Alex Meret Napoli Aktiv 154 / 161 40% 1 14.06.2027 -
Tomáš Souček West Ham United Aktiv 124 / 142 40% 1 30.12.2026 -
Dara O'Shea Ipswich Town Aktiv 142 / 134 40% 2 29.12.2026 -
Valentín Gómez Betis Aktiv 129 / 140 40% 2 29.12.2026 -
Oliver Skipp Leicester City Aktiv 144 / 136 40% 1 27.12.2026 -
Diego Lainez Tigres Aktiv 131 / 134 40% 3 26.12.2026 -
Edu Expósito Espanyol Aktiv 148 / 147 40% 12 24.12.2026 -
Alan Lescano Argentinos Juniors Aktiv 124 / 125 40% 3 24.12.2026 -
Carlos Forbs Club Brugge Aktiv 132 / 141 40% 4 23.12.2026 -
Sebastián Córdova Pumas UNAM Aktiv 139 / 124 40% 2 23.12.2026 -
John McGinn Aston Villa Aktiv 157 / 151 40% 1 20.12.2026 -
Ismael Díaz Leon Verloren 125 / 132 40% 1 18.12.2026 -
Juninho Pumas UNAM Aktiv 134 / 135 40% 4 17.12.2026 -
Majid Jahanbakhsh Rah Ahan Aktiv 124 / 132 40% 2 17.12.2026 -
Marcelo Allende Mamelodi Sundowns Aktiv 123 / 129 40% 1 15.12.2026 -
Erik Lira Cruz Azul Aktiv 140 / 134 40% 1 15.12.2026 -
Agustín Palavecino Cruz Azul Aktiv 137 / 139 40% 1 12.12.2026 -
Joaquim Tigres Aktiv 131 / 132 40% 1 11.12.2026 -
Hidemasa Morita Hull City Aktiv 156 / 142 40% 1 11.12.2026 -
Gustavo Hamer Sheffield United Aktiv 130 / 125 40% 1 11.12.2026 -
Andrew Robertson Tottenham Aktiv 151 / 158 40% 1 10.12.2026 -
Solly March Brighton Aktiv 147 / 141 40% 1 08.12.2026 -
Aníbal Moreno River Plate Aktiv 135 / 130 40% 2 07.12.2026 -
Brooke Norton-Cuffy Hull City Aktiv 143 / 136 40% 1 07.12.2026 -
Luke Shaw Lokomotiv Moscow Aktiv 148 / 164 40% 2 05.12.2026 -
Jesús Orozco Chiquete Cruz Azul Aktiv 133 / 129 40% 1 05.12.2026 -
Anel Ahmedhodžić Burnley Aktiv 145 / 135 40% 1 05.12.2026 -
Ilay Camara Anderlecht Aktiv 137 / 139 40% 1 04.12.2026 -
Sergi Cardona KAA Gent Aktiv 148 / 141 40% 8 03.12.2026 -
Emanuel Mammana Vélez Aktiv 122 / 139 40% 4 03.12.2026 -
Ronnie Edwards Queens Park Rangers Aktiv 115 / 132 40% 1 01.12.2026 -
Nacho Vidal Santos Laguna Aktiv 128 / 122 40% 1 01.12.2026 -
Ferland Mendy Real Madrid Aktiv 144 / 138 40% 5 30.11.2026 -
Edoardo Bove Watford Aktiv 142 / 119 40% 1 29.11.2026 -
Luís Esteves Atlas Aktiv 133 / 134 40% 7 28.11.2026 -
Jordi Cortizo Leon Aktiv 130 / 118 40% 1 27.11.2026 -
Reda Khadra Qarabag Aktiv 138 / 141 40% 1 25.11.2026 -
Fidel Ambríz Monterrey Aktiv 130 / 136 40% 2 23.11.2026 -
Welington Southampton Aktiv 121 / 122 40% 2 23.11.2026 -
Leandro Paredes Boca Juniors Aktiv 143 / 136 40% 2 23.11.2026 -
Kenny Tete Fulham Aktiv 153 / 142 40% 3 21.11.2026 -
Santiago Ascacíbar Boca Juniors Aktiv 140 / 138 40% 2 21.11.2026 -
Juan Bisanz Huracán Aktiv 122 / 135 40% 2 21.11.2026 -
Rodrigo Echeverría Leon Aktiv 123 / 128 40% 1 21.11.2026 -
Ignacio Vázquez Platense Aktiv 120 / 124 40% 1 18.11.2026 -
Adonis Frías Atlas Aktiv 131 / 120 40% 2 17.11.2026 -
Gonzalo Montiel River Plate Aktiv 119 / 125 40% 1 17.11.2026 -
Will Hughes Bloemfontein Celtic Aktiv 134 / 122 40% 1 17.11.2026 -
Víctor Guzmán Monterrey Aktiv 126 / 136 40% 1 10.11.2026 -
Milan van Ewijk Coventry City Aktiv 131 / 138 40% 1 09.11.2026 -
Elías Gómez Vélez Aktiv 123 / 134 40% 1 08.11.2026 -
Toti Wolverhampton Aktiv 129 / 120 40% 1 08.11.2026 -
Matías Vargas Gimnasia y Esgrima Aktiv 131 / 124 40% 2 04.11.2026 -
Ángel Correa River Plate Aktiv 141 / 130 40% 4 31.10.2026 -
Alex Luna Instituto Aktiv 131 / 143 40% 1 30.10.2026 -
Álex Berenguer Lokomotiv Moscow Aktiv 140 / 161 40% 2 27.10.2026 -
Manu Morlanes Mallorca Aktiv 125 / 125 40% 1 27.10.2026 -
Alan Velasco Boca Juniors Aktiv 121 / 122 40% 1 22.10.2026 -
Marcelino Moreno Lanús Aktiv 132 / 135 40% 1 20.10.2026 -
Luke McNally Bristol City Aktiv 122 / 122 40% 1 18.10.2026 -
Willer Ditta Cruz Azul Aktiv 126 / 134 40% 1 16.10.2026 -
Óscar Valentín FC Copenhagen Aktiv 120 / 137 40% 1 15.10.2026 -
Gastón Lodico Racing Club Aktiv 122 / 136 40% 1 13.10.2026 -
Rodrigo De Paul Inter Miami CF Aktiv 153 / 149 40% 4 12.10.2026 -
Carlos Palacios Boca Juniors Aktiv 130 / 128 40% 1 12.10.2026 -
Wendel Zenit Aktiv 152 / 152 40% 1 09.10.2026 -
Talles Magno New York City Aktiv 125 / 129 40% 3 08.10.2026 -
Keaton Parks New York City Aktiv 121 / 132 40% 1 07.10.2026 -
Gerardo Arteaga Monterrey Aktiv 122 / 124 40% 1 07.10.2026 -
Carlos Rodríguez Cruz Azul Aktiv 140 / 127 40% 3 05.10.2026 -
Rubén Duarte Pumas UNAM Aktiv 136 / 134 40% 1 05.10.2026 -
Tyrhys Dolan Espanyol Aktiv 133 / 134 40% 3 04.10.2026 -
Martín Ojeda Orlando City Aktiv 129 / 133 40% 1 29.09.2026 -
Pedrinho Shakhtar Aktiv 134 / 147 40% 2 26.09.2026 -
João Cancelo Spartak Moscow Aktiv 161 / 141 40% 3 25.09.2026 -
Ryan Gauld Vancouver Whitecaps Aktiv 142 / 133 40% 1 22.09.2026 -
Jesús Gallardo Toluca Aktiv 131 / 142 40% 1 22.09.2026 -
Bryan Ramírez FC Cincinnati Aktiv 135 / 132 40% 1 13.09.2026 -
Paxten Aaronson Colorado Rapids Aktiv 126 / 141 40% 1 12.09.2026 -
Alexey Miranchuk Atlanta United FC Aktiv 149 / 134 40% 1 11.09.2026 -
Cristian Espinoza Nashville SC Aktiv 127 / 128 40% 1 10.09.2026 -
Joaquín Pereyra Minnesota United FC Aktiv 123 / 122 40% 1 09.09.2026 -
Riqui Puig LA Galaxy Aktiv 137 / 126 40% 1 08.09.2026 -
Patrick Schulte Columbus Crew Aktiv 121 / 119 40% 1 31.08.2026 -
Carlos Acevedo Santos Laguna Aktiv 125 / 120 40% 1 31.08.2026 -
Dmytro Riznyk Racing Genk Aktiv 142 / 144 40% 1 31.08.2026 -